Time;durP1;ratioP1;P1;durP2;ratioP2;P2;SDS_P1;SDS_P2;PMS_P1;PMS_P2;Temp;Humidity;BMP_temperature;BMP_pressure;BME280_temperature;BME280_humidity;BME280_pressure;Samples;Min_cycle;Max_cycle;Signal;HPM_P1;HPM_P2
2021/03/24 00:05:15;;;;;;;29.87;26.87;;;;;;;;;;4883688;28;20818;-52
2021/03/24 00:07:42;;;;;;;29.33;26.33;;;;;;;;;;4178216;34;20314;-55
2021/03/24 00:10:10;;;;;;;27.60;24.65;;;;;;;;;;4165509;34;20210;-57
2021/03/24 00:12:41;;;;;;;27.37;24.50;;;;;;;;;;4178312;34;20199;-53
2021/03/24 00:15:11;;;;;;;28.58;25.60;;;;;;;;;;4178313;34;20111;-54
2021/03/24 00:17:38;;;;;;;27.67;24.87;;;;;;;;;;4166159;34;20178;-54
2021/03/24 00:20:11;;;;;;;27.08;24.30;;;;;;;;;;4178429;34;20221;-58
2021/03/24 00:22:39;;;;;;;28.02;25.25;;;;;;;;;;4154867;34;20131;-56
2021/03/24 00:25:08;;;;;;;25.90;23.27;;;;;;;;;;4165948;34;20142;-56
2021/03/24 00:27:36;;;;;;;25.00;22.58;;;;;;;;;;4178557;34;20498;-52
2021/03/24 00:30:04;;;;;;;22.40;20.20;;;;;;;;;;4178323;34;20162;-56
2021/03/24 00:32:30;;;;;;;22.13;20.02;;;;;;;;;;4165738;34;20197;-57
2021/03/24 00:34:57;;;;;;;22.75;20.42;;;;;;;;;;4165351;34;20118;-57
2021/03/24 00:37:24;;;;;;;20.83;18.73;;;;;;;;;;4165835;34;20511;-56
2021/03/24 00:39:50;;;;;;;21.60;19.50;;;;;;;;;;4178199;34;20230;-55
2021/03/24 00:42:18;;;;;;;20.30;18.25;;;;;;;;;;4178421;34;20263;-54
2021/03/24 00:44:45;;;;;;;22.62;20.02;;;;;;;;;;4178290;34;20537;-58
2021/03/24 00:47:11;;;;;;;21.15;19.08;;;;;;;;;;4178306;34;20114;-57
2021/03/24 00:49:38;;;;;;;21.27;19.23;;;;;;;;;;4165369;34;20125;-55
2021/03/24 00:52:05;;;;;;;20.95;18.75;;;;;;;;;;4178279;34;20103;-57
2021/03/24 00:54:31;;;;;;;19.70;17.62;;;;;;;;;;4178178;34;20534;-57
2021/03/24 00:56:58;;;;;;;19.98;17.98;;;;;;;;;;4178122;34;20121;-54
2021/03/24 00:59:26;;;;;;;18.30;16.48;;;;;;;;;;4178096;34;20194;-57
2021/03/24 01:01:52;;;;;;;18.70;16.80;;;;;;;;;;4178074;34;20206;-54
2021/03/24 01:04:19;;;;;;;18.10;16.30;;;;;;;;;;4154012;34;20118;-58
2021/03/24 01:06:51;;;;;;;16.80;15.20;;;;;;;;;;4178040;34;20111;-56
2021/03/24 01:09:17;;;;;;;18.15;16.05;;;;;;;;;;4177204;34;20109;-57
2021/03/24 01:11:46;;;;;;;15.38;13.88;;;;;;;;;;4177969;34;20113;-56
2021/03/24 01:14:13;;;;;;;15.75;14.15;;;;;;;;;;4177905;34;20529;-52
2021/03/24 01:16:39;;;;;;;14.48;13.07;;;;;;;;;;4165263;34;20111;-56
2021/03/24 01:19:06;;;;;;;14.65;13.15;;;;;;;;;;4178026;34;20118;-55
2021/03/24 01:21:33;;;;;;;23.95;20.60;;;;;;;;;;4177663;34;20111;-57
2021/03/24 01:23:59;;;;;;;25.05;20.70;;;;;;;;;;4165336;34;20121;-58
2021/03/24 01:26:26;;;;;;;29.58;23.08;;;;;;;;;;4177829;34;20130;-54
2021/03/24 01:28:59;;;;;;;24.77;22.13;;;;;;;;;;4177855;34;20098;-56
2021/03/24 01:31:29;;;;;;;27.73;23.80;;;;;;;;;;4154473;34;20122;-58
2021/03/24 01:33:56;;;;;;;24.42;21.65;;;;;;;;;;4177852;34;20138;-56
2021/03/24 01:36:23;;;;;;;26.02;21.65;;;;;;;;;;4177904;34;20150;-57
2021/03/24 01:38:50;;;;;;;24.30;21.70;;;;;;;;;;4177899;34;20141;-58
2021/03/24 01:41:19;;;;;;;24.65;21.98;;;;;;;;;;4177614;34;20130;-57
2021/03/24 01:43:46;;;;;;;35.10;27.73;;;;;;;;;;4165151;34;20095;-57
2021/03/24 01:46:19;;;;;;;46.05;38.42;;;;;;;;;;4177669;34;20215;-57
2021/03/24 01:48:47;;;;;;;52.92;38.05;;;;;;;;;;4164993;34;20118;-57
2021/03/24 01:51:14;;;;;;;44.17;33.50;;;;;;;;;;4165245;34;20106;-56
2021/03/24 01:53:40;;;;;;;50.35;34.78;;;;;;;;;;4165126;34;20130;-57
2021/03/24 01:56:08;;;;;;;49.38;35.75;;;;;;;;;;4165005;34;20123;-54
2021/03/24 01:58:35;;;;;;;68.32;51.78;;;;;;;;;;4177756;34;20102;-57
2021/03/24 02:01:05;;;;;;;84.68;62.38;;;;;;;;;;4165035;34;20118;-58
2021/03/24 02:03:32;;;;;;;76.15;51.37;;;;;;;;;;4165001;34;20122;-55
2021/03/24 02:06:00;;;;;;;64.47;43.00;;;;;;;;;;4176931;34;20136;-52
2021/03/24 02:08:34;;;;;;;81.03;52.47;;;;;;;;;;4165248;34;20513;-57
2021/03/24 02:11:31;;;;;;;78.65;51.53;;;;;;;;;;4164783;34;20129;-56
2021/03/24 02:14:05;;;;;;;93.12;61.67;;;;;;;;;;4167198;34;20141;-58
2021/03/24 02:16:37;;;;;;;102.97;64.82;;;;;;;;;;4165237;34;20553;-58
2021/03/24 02:19:06;;;;;;;115.90;72.53;;;;;;;;;;4164959;34;20118;-54
2021/03/24 02:21:34;;;;;;;113.43;65.10;;;;;;;;;;4164647;34;20121;-56
2021/03/24 02:24:09;;;;;;;111.22;65.28;;;;;;;;;;4164877;34;20535;-55
2021/03/24 02:26:39;;;;;;;107.10;65.05;;;;;;;;;;4177291;34;20131;-54
2021/03/24 02:29:11;;;;;;;120.03;71.53;;;;;;;;;;4177368;34;20126;-58
2021/03/24 02:31:42;;;;;;;121.43;70.53;;;;;;;;;;4165052;34;20099;-59
2021/03/24 02:34:13;;;;;;;130.35;77.75;;;;;;;;;;4164773;34;20094;-55
2021/03/24 02:36:39;;;;;;;158.70;102.35;;;;;;;;;;4164258;34;20203;-52
2021/03/24 02:39:08;;;;;;;155.55;108.40;;;;;;;;;;4164837;34;20110;-55
2021/03/24 02:41:34;;;;;;;128.35;85.78;;;;;;;;;;4164191;34;20138;-55
2021/03/24 02:44:00;;;;;;;72.22;46.97;;;;;;;;;;4164357;34;20133;-57
2021/03/24 02:46:26;;;;;;;23.50;17.20;;;;;;;;;;4176925;34;20114;-57
2021/03/24 02:48:52;;;;;;;12.68;11.25;;;;;;;;;;4176905;34;20126;-54
2021/03/24 02:51:22;;;;;;;8.65;7.80;;;;;;;;;;4164332;34;20569;-58
2021/03/24 02:54:01;;;;;;;8.25;7.45;;;;;;;;;;4164881;34;20533;-51
2021/03/24 02:56:31;;;;;;;8.60;7.80;;;;;;;;;;4164636;34;20131;-58
2021/03/24 02:58:57;;;;;;;7.87;7.18;;;;;;;;;;4164289;34;20198;-51
2021/03/24 03:01:25;;;;;;;8.13;7.43;;;;;;;;;;4164389;34;20126;-54
2021/03/24 03:03:55;;;;;;;8.05;7.07;;;;;;;;;;4164067;34;20122;-57
2021/03/24 03:06:21;;;;;;;8.27;7.20;;;;;;;;;;4164250;34;20222;-53
2021/03/24 03:08:50;;;;;;;10.88;7.90;;;;;;;;;;4164059;34;20135;-54
2021/03/24 03:11:19;;;;;;;8.90;8.00;;;;;;;;;;4164314;34;20130;-59
2021/03/24 03:13:49;;;;;;;9.38;8.48;;;;;;;;;;4176824;34;20118;-60
2021/03/24 03:16:30;;;;;;;11.00;9.90;;;;;;;;;;4164116;34;20137;-55
2021/03/24 03:19:02;;;;;;;11.20;10.10;;;;;;;;;;4164297;34;20498;-57
2021/03/24 03:21:36;;;;;;;11.90;10.60;;;;;;;;;;4163791;34;20218;-59
2021/03/24 03:24:02;;;;;;;12.45;10.73;;;;;;;;;;4164035;34;20695;-55
2021/03/24 03:26:28;;;;;;;11.50;10.35;;;;;;;;;;4176724;34;20114;-50
2021/03/24 03:28:56;;;;;;;11.15;10.05;;;;;;;;;;4163879;34;20107;-56
2021/03/24 03:31:24;;;;;;;11.63;10.43;;;;;;;;;;4176849;34;20103;-52
2021/03/24 03:33:51;;;;;;;11.95;10.80;;;;;;;;;;4165855;34;20321;-49
2021/03/24 03:36:17;;;;;;;11.50;10.38;;;;;;;;;;4165954;34;20130;-52
2021/03/24 03:38:44;;;;;;;13.00;11.80;;;;;;;;;;4178684;34;20098;-56
2021/03/24 03:41:11;;;;;;;12.80;11.60;;;;;;;;;;4166070;34;20446;-53
2021/03/24 03:43:40;;;;;;;13.25;12.05;;;;;;;;;;4165952;34;20126;-56
2021/03/24 03:46:06;;;;;;;13.90;12.60;;;;;;;;;;4165781;34;20111;-53
2021/03/24 03:48:31;;;;;;;15.32;13.77;;;;;;;;;;4166188;34;20108;-55
2021/03/24 03:51:02;;;;;;;16.25;14.63;;;;;;;;;;4178442;34;20505;-52
2021/03/24 03:53:50;;;;;;;17.95;16.12;;;;;;;;;;4166188;34;20213;-54
2021/03/24 03:56:27;;;;;;;19.92;16.95;;;;;;;;;;4166331;34;20095;-52
2021/03/24 03:59:01;;;;;;;48.25;32.45;;;;;;;;;;4165856;34;20106;-51
2021/03/24 04:01:29;;;;;;;99.35;59.47;;;;;;;;;;4178537;34;20291;-55
2021/03/24 04:04:06;;;;;;;113.00;70.80;;;;;;;;;;4165745;34;20107;-56
2021/03/24 04:06:37;;;;;;;110.22;69.05;;;;;;;;;;4165511;34;20215;-57
2021/03/24 04:09:03;;;;;;;106.53;70.78;;;;;;;;;;4165703;34;20161;-53
2021/03/24 04:11:31;;;;;;;81.72;56.00;;;;;;;;;;4165549;34;20126;-55
2021/03/24 04:13:58;;;;;;;89.05;64.45;;;;;;;;;;4165496;34;20129;-54
2021/03/24 04:16:25;;;;;;;66.03;51.65;;;;;;;;;;4165805;34;20121;-53
2021/03/24 04:18:54;;;;;;;65.20;42.90;;;;;;;;;;4165676;34;20099;-53
2021/03/24 04:21:20;;;;;;;43.20;26.85;;;;;;;;;;4165460;34;20126;-53
2021/03/24 04:23:50;;;;;;;39.08;22.35;;;;;;;;;;4165561;34;20090;-52
2021/03/24 04:26:29;;;;;;;22.35;14.73;;;;;;;;;;4165344;34;20130;-53
2021/03/24 04:28:58;;;;;;;12.60;10.00;;;;;;;;;;4166628;34;20115;-54
2021/03/24 04:31:24;;;;;;;9.10;8.30;;;;;;;;;;4165363;34;20099;-54
2021/03/24 04:33:50;;;;;;;9.15;8.35;;;;;;;;;;4165480;34;20110;-53
2021/03/24 04:36:19;;;;;;;8.45;7.65;;;;;;;;;;4178224;34;20125;-53
2021/03/24 04:38:48;;;;;;;9.15;8.15;;;;;;;;;;4165339;34;20130;-53
2021/03/24 04:41:20;;;;;;;9.65;8.60;;;;;;;;;;4165584;34;20098;-56
2021/03/24 04:43:47;;;;;;;13.52;9.70;;;;;;;;;;4164754;34;20102;-57
2021/03/24 04:46:21;;;;;;;23.90;13.85;;;;;;;;;;4165307;34;20213;-52
2021/03/24 04:48:49;;;;;;;55.95;27.05;;;;;;;;;;4165412;34;20642;-53
2021/03/24 04:51:20;;;;;;;50.55;24.08;;;;;;;;;;4154140;34;20191;-57
2021/03/24 04:54:06;;;;;;;35.80;19.02;;;;;;;;;;4165325;34;20502;-56
2021/03/24 04:56:32;;;;;;;34.13;21.27;;;;;;;;;;4165232;34;20125;-53
2021/03/24 04:58:58;;;;;;;39.03;22.67;;;;;;;;;;4177971;34;20110;-55
2021/03/24 05:01:41;;;;;;;38.13;22.20;;;;;;;;;;4165373;34;20141;-54
2021/03/24 05:04:23;;;;;;;33.60;21.67;;;;;;;;;;4165198;34;20103;-55
2021/03/24 05:06:52;;;;;;;47.17;28.58;;;;;;;;;;4165036;34;20113;-54
2021/03/24 05:09:18;;;;;;;35.60;24.20;;;;;;;;;;4177824;34;20103;-53
2021/03/24 05:11:47;;;;;;;41.30;25.55;;;;;;;;;;4165159;34;20117;-54
2021/03/24 05:14:24;;;;;;;33.58;22.50;;;;;;;;;;4177872;34;20146;-54
2021/03/24 05:17:04;;;;;;;25.55;17.37;;;;;;;;;;4165063;34;20118;-53
2021/03/24 05:19:29;;;;;;;19.87;12.80;;;;;;;;;;4177811;34;20150;-56
2021/03/24 05:22:01;;;;;;;31.73;18.95;;;;;;;;;;4164898;34;20131;-56
2021/03/24 05:24:29;;;;;;;43.47;22.85;;;;;;;;;;4165334;34;20122;-52
2021/03/24 05:27:05;;;;;;;31.52;20.27;;;;;;;;;;4177947;34;20657;-57
2021/03/24 05:29:37;;;;;;;40.95;24.58;;;;;;;;;;4165519;34;20097;-57
2021/03/24 05:32:04;;;;;;;50.42;31.85;;;;;;;;;;4165004;34;20102;-57
2021/03/24 05:34:33;;;;;;;40.12;25.55;;;;;;;;;;4153866;34;20107;-51
2021/03/24 05:36:59;;;;;;;22.35;18.00;;;;;;;;;;4164954;34;20106;-56
2021/03/24 05:39:28;;;;;;;16.40;14.80;;;;;;;;;;4165008;34;20222;-53
2021/03/24 05:41:57;;;;;;;15.65;14.13;;;;;;;;;;4165045;34;20222;-53
2021/03/24 05:45:05;;;;;;;16.45;14.95;;;;;;;;;;4177697;34;20522;-52
2021/03/24 05:47:33;;;;;;;16.02;14.52;;;;;;;;;;4172142;34;20178;-51
2021/03/24 05:50:18;;;;;;;16.17;14.57;;;;;;;;;;4164786;34;20118;-55
2021/03/24 05:53:15;;;;;;;17.42;15.82;;;;;;;;;;4177439;34;20106;-55
2021/03/24 05:55:55;;;;;;;15.52;14.13;;;;;;;;;;4164720;34;20137;-55
2021/03/24 05:58:35;;;;;;;14.48;13.18;;;;;;;;;;4164909;34;20106;-53
2021/03/24 06:01:04;;;;;;;16.83;15.23;;;;;;;;;;4164747;34;20214;-52
2021/03/24 06:03:56;;;;;;;17.95;16.25;;;;;;;;;;4164666;34;20115;-57
2021/03/24 06:06:45;;;;;;;16.30;14.82;;;;;;;;;;4177254;34;20205;-53
2021/03/24 06:09:36;;;;;;;15.32;13.93;;;;;;;;;;4177011;34;20126;-54
2021/03/24 06:12:35;;;;;;;15.88;14.43;;;;;;;;;;4177404;34;20469;-55
2021/03/24 06:15:13;;;;;;;17.08;15.48;;;;;;;;;;4177433;34;20102;-53
2021/03/24 06:17:57;;;;;;;17.48;15.88;;;;;;;;;;4177498;34;20146;-53
2021/03/24 06:20:52;;;;;;;17.15;15.60;;;;;;;;;;4177332;34;20126;-52
2021/03/24 06:23:30;;;;;;;17.90;16.30;;;;;;;;;;4165825;34;20111;-53
2021/03/24 06:26:19;;;;;;;17.42;15.82;;;;;;;;;;4177184;34;20099;-56
2021/03/24 06:28:59;;;;;;;17.45;15.65;;;;;;;;;;4166301;34;20118;-54
2021/03/24 06:31:47;;;;;;;19.30;17.27;;;;;;;;;;4164398;34;20109;-55
2021/03/24 06:34:29;;;;;;;18.35;16.55;;;;;;;;;;4177439;34;20114;-51
2021/03/24 06:37:22;;;;;;;18.70;16.90;;;;;;;;;;4164921;34;20597;-50
2021/03/24 06:39:54;;;;;;;17.65;15.80;;;;;;;;;;4164610;34;20099;-54
2021/03/24 06:42:34;;;;;;;17.42;15.70;;;;;;;;;;4177076;34;20130;-49
2021/03/24 06:45:28;;;;;;;17.17;15.48;;;;;;;;;;4177078;34;20451;-53
2021/03/24 06:48:12;;;;;;;17.95;15.60;;;;;;;;;;4177314;34;20118;-51
2021/03/24 06:51:12;;;;;;;16.17;14.68;;;;;;;;;;4164284;34;20533;-51
2021/03/24 06:53:43;;;;;;;18.00;16.48;;;;;;;;;;4176922;34;20112;-51
2021/03/24 06:56:33;;;;;;;20.23;18.00;;;;;;;;;;4177138;34;20129;-51
2021/03/24 06:59:41;;;;;;;23.85;21.37;;;;;;;;;;4177012;34;20177;-57
2021/03/24 07:02:35;;;;;;;19.27;17.27;;;;;;;;;;4176811;34;20451;-55
2021/03/24 07:05:07;;;;;;;17.15;15.45;;;;;;;;;;4176726;34;20477;-57
2021/03/24 07:08:00;;;;;;;15.88;14.30;;;;;;;;;;4165306;34;20122;-51
2021/03/24 07:10:41;;;;;;;14.82;13.38;;;;;;;;;;4167438;34;20283;-53
2021/03/24 07:13:26;;;;;;;11.12;10.02;;;;;;;;;;4167246;34;20547;-52
2021/03/24 07:16:23;;;;;;;8.95;8.15;;;;;;;;;;4166243;34;20109;-52
2021/03/24 07:19:20;;;;;;;9.15;8.35;;;;;;;;;;4178942;34;20090;-54
2021/03/24 07:22:02;;;;;;;8.15;7.43;;;;;;;;;;4178642;34;20130;-56
2021/03/24 07:24:49;;;;;;;8.63;7.55;;;;;;;;;;4167660;34;20114;-51
2021/03/24 07:27:24;;;;;;;8.60;7.80;;;;;;;;;;4178760;34;20118;-52
2021/03/24 07:30:04;;;;;;;8.43;7.67;;;;;;;;;;4166184;34;20098;-54
2021/03/24 07:32:50;;;;;;;8.82;7.78;;;;;;;;;;4166627;34;20103;-50
2021/03/24 07:35:40;;;;;;;8.13;7.43;;;;;;;;;;4178942;34;20106;-51
2021/03/24 07:38:34;;;;;;;7.82;7.12;;;;;;;;;;4178794;34;20102;-54
2021/03/24 07:41:25;;;;;;;7.82;7.12;;;;;;;;;;4178768;34;20230;-54
2021/03/24 07:43:56;;;;;;;8.50;7.72;;;;;;;;;;4167895;34;20130;-55
2021/03/24 07:46:50;;;;;;;8.55;7.22;;;;;;;;;;4178556;34;20194;-54
2021/03/24 07:49:40;;;;;;;9.60;7.87;;;;;;;;;;4178686;34;20141;-54
2021/03/24 07:52:21;;;;;;;12.13;9.35;;;;;;;;;;4178553;34;20122;-57
2021/03/24 07:54:56;;;;;;;9.65;7.95;;;;;;;;;;4167121;34;20470;-54
2021/03/24 07:57:37;;;;;;;9.00;7.55;;;;;;;;;;4165688;34;20106;-53
2021/03/24 08:00:20;;;;;;;8.88;8.02;;;;;;;;;;4165552;34;20117;-52
2021/03/24 08:02:54;;;;;;;7.68;6.97;;;;;;;;;;4155145;34;20121;-56
2021/03/24 08:05:41;;;;;;;8.05;7.35;;;;;;;;;;4165595;34;20541;-53
2021/03/24 08:08:19;;;;;;;7.90;7.10;;;;;;;;;;4167530;34;20530;-53
2021/03/24 08:11:01;;;;;;;7.85;7.15;;;;;;;;;;4165732;34;20114;-51
2021/03/24 08:13:42;;;;;;;7.75;7.05;;;;;;;;;;4178551;34;20411;-52
2021/03/24 08:16:27;;;;;;;8.35;7.57;;;;;;;;;;4165486;34;20114;-53
2021/03/24 08:18:58;;;;;;;8.40;7.70;;;;;;;;;;4178088;34;20102;-53
2021/03/24 08:21:39;;;;;;;7.97;7.28;;;;;;;;;;4165736;34;20099;-54
2021/03/24 08:24:21;;;;;;;8.38;7.57;;;;;;;;;;4178430;34;20106;-53
2021/03/24 08:26:49;;;;;;;9.52;8.63;;;;;;;;;;4166361;34;20095;-52
2021/03/24 08:29:26;;;;;;;8.65;7.85;;;;;;;;;;4165526;34;20222;-52
2021/03/24 08:32:16;;;;;;;8.57;7.78;;;;;;;;;;4165559;34;20087;-56
2021/03/24 08:35:07;;;;;;;7.87;7.18;;;;;;;;;;4178303;34;20107;-52
2021/03/24 08:38:24;;;;;;;8.82;7.93;;;;;;;;;;4178063;34;20207;-55
2021/03/24 08:41:08;;;;;;;7.82;7.18;;;;;;;;;;4154722;34;20118;-55
2021/03/24 08:43:39;;;;;;;8.57;7.87;;;;;;;;;;4177965;34;20115;-52
2021/03/24 08:46:24;;;;;;;8.18;7.47;;;;;;;;;;4178181;34;20227;-53
2021/03/24 08:48:59;;;;;;;8.38;7.57;;;;;;;;;;4165292;34;20146;-56
2021/03/24 08:51:34;;;;;;;7.87;7.22;;;;;;;;;;4178111;34;20514;-56
2021/03/24 08:54:20;;;;;;;8.20;7.20;;;;;;;;;;4165510;34;20636;-57
2021/03/24 08:56:59;;;;;;;;;;;;;;;;;;4165851;34;20117;-56
2021/03/24 08:59:25;;;;;;;8.35;7.55;;;;;;;;;;4177920;34;20338;-55
2021/03/24 09:02:27;;;;;;;8.15;7.45;;;;;;;;;;4164803;34;20121;-55
2021/03/24 09:05:14;;;;;;;8.32;7.60;;;;;;;;;;4167317;34;20600;-54
2021/03/24 09:08:18;;;;;;;9.32;8.27;;;;;;;;;;4165293;34;20186;-54
2021/03/24 09:10:59;;;;;;;9.45;8.55;;;;;;;;;;4177977;34;20099;-55
2021/03/24 09:13:37;;;;;;;8.45;7.75;;;;;;;;;;4165340;34;20107;-55
2021/03/24 09:16:22;;;;;;;9.10;8.30;;;;;;;;;;4165067;34;20138;-54
2021/03/24 09:18:49;;;;;;;8.77;8.00;;;;;;;;;;4177835;34;20111;-54
2021/03/24 09:21:20;;;;;;;8.23;7.60;;;;;;;;;;4165239;34;20123;-57
2021/03/24 09:23:49;;;;;;;8.70;7.85;;;;;;;;;;4164995;34;20130;-54
2021/03/24 09:27:04;;;;;;;8.50;7.80;;;;;;;;;;4177805;34;20106;-57
2021/03/24 09:30:08;;;;;;;9.02;8.23;;;;;;;;;;4154933;34;20222;-55
2021/03/24 09:32:35;;;;;;;8.80;8.00;;;;;;;;;;4146280;34;20138;-54
2021/03/24 09:35:24;;;;;;;8.57;7.65;;;;;;;;;;4165209;34;20098;-57
2021/03/24 09:38:00;;;;;;;8.35;7.65;;;;;;;;;;4164888;34;20190;-52
2021/03/24 09:40:44;;;;;;;8.18;7.47;;;;;;;;;;4153881;34;20110;-50
2021/03/24 09:43:31;;;;;;;7.37;6.78;;;;;;;;;;4165048;34;20106;-55
2021/03/24 09:46:01;;;;;;;8.35;7.53;;;;;;;;;;4153766;34;20118;-51
2021/03/24 09:48:27;;;;;;;7.97;7.28;;;;;;;;;;4164828;34;20126;-54
2021/03/24 09:50:53;;;;;;;8.35;7.65;;;;;;;;;;4153566;34;20122;-50
2021/03/24 09:53:22;;;;;;;8.00;7.30;;;;;;;;;;4177389;34;20109;-54
2021/03/24 09:56:15;;;;;;;7.87;7.18;;;;;;;;;;4166925;34;20129;-53
2021/03/24 09:59:43;;;;;;;7.97;7.28;;;;;;;;;;4164743;34;20146;-53
2021/03/24 10:02:28;;;;;;;;;;;;;;;;;;4161951;34;20234;-56
2021/03/24 10:05:00;;;;;;;8.95;8.15;;;;;;;;;;4177403;34;20009;-55
2021/03/24 10:07:28;;;;;;;9.38;8.57;;;;;;;;;;4164820;34;20138;-55
2021/03/24 10:09:58;;;;;;;9.30;8.40;;;;;;;;;;4164843;34;20207;-54
2021/03/24 10:12:34;;;;;;;8.95;8.05;;;;;;;;;;4164898;34;20561;-53
2021/03/24 10:15:07;;;;;;;;;;;;;;;;;;4164889;34;20560;-53
2021/03/24 10:17:52;;;;;;;9.15;8.35;;;;;;;;;;4177514;34;20419;-57
2021/03/24 10:20:36;;;;;;;8.45;7.57;;;;;;;;;;4164622;34;20589;-51
2021/03/24 10:23:14;;;;;;;9.93;8.38;;;;;;;;;;4177393;34;20522;-55
2021/03/24 10:25:44;;;;;;;8.52;7.82;;;;;;;;;;4165286;34;20593;-50
2021/03/24 10:28:17;;;;;;;9.00;8.20;;;;;;;;;;4177509;34;20121;-52
2021/03/24 10:30:52;;;;;;;9.40;8.60;;;;;;;;;;4164346;34;20712;-58
2021/03/24 10:33:35;;;;;;;9.93;8.93;;;;;;;;;;4165237;34;20129;-61
2021/03/24 10:36:05;;;;;;;9.82;8.93;;;;;;;;;;4165885;34;20133;-58
2021/03/24 10:38:42;;;;;;;9.98;9.07;;;;;;;;;;4176981;34;20111;-55
2021/03/24 10:41:20;;;;;;;9.70;8.80;;;;;;;;;;4163438;34;20107;-54
2021/03/24 10:43:51;;;;;;;9.88;8.98;;;;;;;;;;4177076;34;20090;-55
2021/03/24 10:46:45;;;;;;;10.40;9.30;;;;;;;;;;4176795;34;20221;-58
2021/03/24 10:49:29;;;;;;;10.05;9.05;;;;;;;;;;4157073;34;20562;-56
2021/03/24 10:52:03;;;;;;;9.63;8.73;;;;;;;;;;4164156;34;20126;-53
2021/03/24 10:54:34;;;;;;;9.55;8.75;;;;;;;;;;4164528;34;20541;-53
2021/03/24 10:57:34;;;;;;;10.55;9.68;;;;;;;;;;4176967;34;20122;-53
2021/03/24 11:00:15;;;;;;;10.20;9.30;;;;;;;;;;4176696;34;20177;-52
2021/03/24 11:03:20;;;;;;;9.25;8.45;;;;;;;;;;4176754;34;20122;-52
2021/03/24 11:06:07;;;;;;;9.93;9.02;;;;;;;;;;4176562;34;20118;-52
2021/03/24 11:08:39;;;;;;;9.57;8.68;;;;;;;;;;4166049;34;20201;-56
2021/03/24 11:11:15;;;;;;;9.27;8.38;;;;;;;;;;4176631;34;20098;-57
2021/03/24 11:13:50;;;;;;;9.43;8.63;;;;;;;;;;4163948;34;20189;-53
2021/03/24 11:16:26;;;;;;;9.60;8.80;;;;;;;;;;4176774;34;20114;-53
2021/03/24 11:18:56;;;;;;;9.23;8.40;;;;;;;;;;4164551;34;20203;-53
2021/03/24 11:21:26;;;;;;;9.95;8.98;;;;;;;;;;4164301;34;20205;-58
2021/03/24 11:23:53;;;;;;;11.07;10.07;;;;;;;;;;4176614;34;20107;-57
2021/03/24 11:26:47;;;;;;;9.10;8.30;;;;;;;;;;4176730;34;20181;-57
2021/03/24 11:29:14;;;;;;;9.05;8.25;;;;;;;;;;4176535;34;20123;-58
2021/03/24 11:31:51;;;;;;;9.57;8.68;;;;;;;;;;4163889;34;20208;-57
2021/03/24 11:34:41;;;;;;;8.90;8.10;;;;;;;;;;4176557;34;20174;-55
2021/03/24 11:37:19;;;;;;;9.40;8.50;;;;;;;;;;4165581;34;20105;-53
2021/03/24 11:39:47;;;;;;;9.13;8.32;;;;;;;;;;4176698;34;20526;-57
2021/03/24 11:42:15;;;;;;;9.85;8.95;;;;;;;;;;4152461;34;20137;-56
2021/03/24 11:44:42;;;;;;;9.68;8.73;;;;;;;;;;4163982;34;20105;-54
2021/03/24 11:47:33;;;;;;;9.43;8.43;;;;;;;;;;4163648;34;20103;-53
2021/03/24 11:50:20;;;;;;;9.02;8.20;;;;;;;;;;4176290;34;20141;-52
2021/03/24 11:53:13;;;;;;;9.85;8.85;;;;;;;;;;4164462;34;20090;-54
2021/03/24 11:55:39;;;;;;;8.90;8.00;;;;;;;;;;4167008;34;20114;-54
2021/03/24 11:58:33;;;;;;;10.32;9.43;;;;;;;;;;4178457;34;20118;-57
2021/03/24 12:01:12;;;;;;;9.35;8.27;;;;;;;;;;4178401;34;20114;-54
2021/03/24 12:03:51;;;;;;;9.10;8.20;;;;;;;;;;4165996;34;20123;-52
2021/03/24 12:06:32;;;;;;;9.68;8.75;;;;;;;;;;4165917;34;20635;-55
2021/03/24 12:09:31;;;;;;;10.02;9.13;;;;;;;;;;4178362;34;20299;-56
2021/03/24 12:12:19;;;;;;;9.52;8.63;;;;;;;;;;4143606;34;20110;-53
2021/03/24 12:15:05;;;;;;;10.90;8.45;;;;;;;;;;4166461;34;20703;-52
2021/03/24 12:17:32;;;;;;;9.43;8.63;;;;;;;;;;4178619;34;20126;-50
2021/03/24 12:20:12;;;;;;;10.10;9.18;;;;;;;;;;4178478;34;20126;-55
2021/03/24 12:22:39;;;;;;;9.85;9.02;;;;;;;;;;4178442;34;20218;-54
2021/03/24 12:25:05;;;;;;;9.80;8.85;;;;;;;;;;4178537;34;20125;-52
2021/03/24 12:27:34;;;;;;;13.30;8.88;;;;;;;;;;4178405;34;20148;-56
2021/03/24 12:30:12;;;;;;;9.90;9.02;;;;;;;;;;4178084;34;20130;-53
2021/03/24 12:32:38;;;;;;;9.05;8.25;;;;;;;;;;4178323;34;20561;-52
2021/03/24 12:35:06;;;;;;;9.32;8.52;;;;;;;;;;4165553;34;20094;-54
2021/03/24 12:37:39;;;;;;;9.88;9.05;;;;;;;;;;4165664;34;20122;-55
2021/03/24 12:40:25;;;;;;;10.52;9.52;;;;;;;;;;4178331;34;20513;-54
2021/03/24 12:42:53;;;;;;;10.38;9.48;;;;;;;;;;4178279;34;20453;-57
2021/03/24 12:45:28;;;;;;;10.05;9.18;;;;;;;;;;4175832;34;20432;-54
2021/03/24 12:48:27;;;;;;;9.77;8.85;;;;;;;;;;4178170;34;20513;-53
2021/03/24 12:51:17;;;;;;;10.20;9.30;;;;;;;;;;4167851;34;20121;-53
2021/03/24 12:53:54;;;;;;;9.65;8.70;;;;;;;;;;4154396;34;20480;-54
2021/03/24 12:56:41;;;;;;;10.73;9.63;;;;;;;;;;4178167;34;20118;-54
2021/03/24 12:59:21;;;;;;;9.43;8.15;;;;;;;;;;4177896;34;20129;-55
2021/03/24 13:02:11;;;;;;;10.48;9.57;;;;;;;;;;4176666;34;20124;-53
2021/03/24 13:05:05;;;;;;;10.50;9.50;;;;;;;;;;4164445;34;20211;-54
2021/03/24 13:08:00;;;;;;;11.43;10.32;;;;;;;;;;4178008;34;20523;-54
2021/03/24 13:10:43;;;;;;;11.23;10.05;;;;;;;;;;4167037;34;20114;-55
2021/03/24 13:13:12;;;;;;;11.80;10.70;;;;;;;;;;4178035;34;20501;-51
2021/03/24 13:16:34;;;;;;;12.50;11.30;;;;;;;;;;4177721;34;20587;-52
2021/03/24 13:19:02;;;;;;;13.73;12.43;;;;;;;;;;4163230;34;20230;-52
2021/03/24 13:21:41;;;;;;;13.40;12.10;;;;;;;;;;4165249;34;20625;-55
2021/03/24 13:24:20;;;;;;;12.63;11.32;;;;;;;;;;4165258;34;20106;-55
2021/03/24 13:26:46;;;;;;;11.30;10.18;;;;;;;;;;4164880;34;20110;-52
2021/03/24 13:29:45;;;;;;;10.85;9.75;;;;;;;;;;4165005;34;20530;-51
2021/03/24 13:32:36;;;;;;;17.65;13.23;;;;;;;;;;4165765;34;20101;-56
2021/03/24 13:35:26;;;;;;;16.27;13.57;;;;;;;;;;4177827;34;20110;-52
2021/03/24 13:37:52;;;;;;;13.30;11.90;;;;;;;;;;4166886;34;20124;-52
2021/03/24 13:40:26;;;;;;;10.70;9.70;;;;;;;;;;4165054;34;20106;-50
2021/03/24 13:43:01;;;;;;;14.45;12.98;;;;;;;;;;4177683;34;20106;-55
2021/03/24 13:45:38;;;;;;;18.33;14.50;;;;;;;;;;4164838;34;20180;-52
2021/03/24 13:48:15;;;;;;;15.02;13.43;;;;;;;;;;4177761;34;20103;-49
2021/03/24 13:50:51;;;;;;;14.90;13.40;;;;;;;;;;4164888;34;20109;-51
2021/03/24 13:53:50;;;;;;;11.55;10.50;;;;;;;;;;4177717;34;20113;-54
2021/03/24 13:56:47;;;;;;;10.80;9.52;;;;;;;;;;4163535;34;20497;-56
2021/03/24 13:59:16;;;;;;;;;;;;;;;;;;4165081;34;20587;-58
2021/03/24 14:02:22;;;;;;;11.55;10.45;;;;;;;;;;4177475;34;19990;-54
2021/03/24 14:05:04;;;;;;;12.50;11.30;;;;;;;;;;4162263;34;20594;-53
2021/03/24 14:07:51;;;;;;;11.05;10.02;;;;;;;;;;4164720;34;20493;-54
2021/03/24 14:10:36;;;;;;;10.25;8.80;;;;;;;;;;4164645;34;20136;-55
2021/03/24 14:13:30;;;;;;;10.10;9.10;;;;;;;;;;4164770;34;20110;-55
2021/03/24 14:16:20;;;;;;;10.05;9.15;;;;;;;;;;4164215;34;20118;-57
2021/03/24 14:19:21;;;;;;;10.18;9.18;;;;;;;;;;4164563;34;20110;-57
2021/03/24 14:21:59;;;;;;;10.43;9.43;;;;;;;;;;4165935;34;20534;-60
2021/03/24 14:24:34;;;;;;;11.07;10.07;;;;;;;;;;4177493;34;20090;-60
2021/03/24 14:27:05;;;;;;;10.33;9.43;;;;;;;;;;4177085;34;20415;-61
2021/03/24 14:29:32;;;;;;;11.60;10.60;;;;;;;;;;4164424;34;20605;-52
2021/03/24 14:32:25;;;;;;;11.38;9.98;;;;;;;;;;4176964;34;20440;-52
2021/03/24 14:35:03;;;;;;;10.93;10.02;;;;;;;;;;4177167;34;20122;-59
2021/03/24 14:37:46;;;;;;;10.63;9.65;;;;;;;;;;4177366;34;20130;-56
2021/03/24 14:40:13;;;;;;;11.12;10.13;;;;;;;;;;4177220;34;20110;-55
2021/03/24 14:43:03;;;;;;;9.90;9.00;;;;;;;;;;4176825;34;20263;-59
2021/03/24 14:46:00;;;;;;;9.63;8.73;;;;;;;;;;4164905;34;20573;-56
2021/03/24 14:48:37;;;;;;;8.57;7.78;;;;;;;;;;4164292;34;20137;-58
2021/03/24 14:51:22;;;;;;;9.90;8.90;;;;;;;;;;4163990;34;20103;-57
2021/03/24 14:53:48;;;;;;;10.82;9.82;;;;;;;;;;4164157;34;20258;-56
2021/03/24 14:56:38;;;;;;;9.20;8.38;;;;;;;;;;4164138;34;20118;-58
2021/03/24 14:59:36;;;;;;;9.82;8.93;;;;;;;;;;4152830;34;20169;-56
2021/03/24 15:02:28;;;;;;;10.07;9.07;;;;;;;;;;4174621;34;20477;-56
2021/03/24 15:04:59;;;;;;;9.57;8.70;;;;;;;;;;4176477;34;20169;-57
2021/03/24 15:07:36;;;;;;;10.05;9.15;;;;;;;;;;4163839;34;20137;-56
2021/03/24 15:10:15;;;;;;;10.20;9.20;;;;;;;;;;4164818;34;20133;-53
2021/03/24 15:12:53;;;;;;;10.45;9.48;;;;;;;;;;4176716;34;20106;-55
2021/03/24 15:15:54;;;;;;;10.18;9.23;;;;;;;;;;4176476;34;20450;-53
2021/03/24 15:18:44;;;;;;;10.05;9.15;;;;;;;;;;4163977;34;20106;-57
2021/03/24 15:21:27;;;;;;;10.55;9.55;;;;;;;;;;4164723;34;20110;-58
2021/03/24 15:24:28;;;;;;;12.52;11.43;;;;;;;;;;4163956;34;20114;-59
2021/03/24 15:27:05;;;;;;;10.35;9.45;;;;;;;;;;4173861;34;20126;-51
2021/03/24 15:29:40;;;;;;;10.05;9.15;;;;;;;;;;4166119;34;20122;-51
2021/03/24 15:32:14;;;;;;;9.82;8.93;;;;;;;;;;4166165;34;20520;-61